Rochester, IN (46975)

5:59 AM EDT on September 20, 2014 (GMT -0400)
4th Street | Change Station
CLOSE
Current Station
Personal Weather Station
Location: Rochester, IN
Elevation: 781 ft
Nearby Weather Stations

Elev 781 ft 41.07 °N, 86.20 °W | Updated 31 seconds ago

Clear
Clear
56.2 °F
Feels Like 56.2 °F
N
2.0
Wind Variable Wind from SSW
Gusts 8.0 mph

Today
High -- | Low -- °F
--% Chance of Precip.
Yesterday
High -- | Low -- °F
Precip. -- in
7:30 AM 7:45 PM
Waning Crescent, 13% visible
Pressure 30.01 in
Visibility 10.0 miles
Clouds Clear
Dew Point 50 °F
Humidity 80%
Rainfall 0.00 in
Snow Depth Not available.
UV 0 out of 12
Pollen 6.20 out of 12
Air Quality Not available.
Flu Activity Not available.
METAR KRCR 200935Z AUTO 19005KT 10SM CLR 15/11 A3001 RMK AO2

More Conditions Fewer Conditions

Pressure 30.01 in
Visibility 10.0 miles
Clouds Clear
Dew Point 50 °F
Humidity 80%
Rainfall 0.00 in
Snow Depth Not available.
UV 0 out of 12
Pollen 6.20 out of 12
Air Quality Not available.
Flu Activity Not available.
METAR KRCR 200935Z AUTO 19005KT 10SM CLR 15/11 A3001 RMK AO2

More Conditions Fewer Conditions

10-Day Weather Forecast

Almanac

Astronomy

Sep. 20, 2014 Rise Set
Actual Time 7:30 AM EDT 7:45 PM EDT
Civil Twilight 7:02 AM EDT 8:12 PM EDT
Nautical Twilight 6:30 AM EDT 8:45 PM EDT
Astronomical Twilight 5:57 AM EDT 9:17 PM EDT
Moon 4:07 AM EDT 5:49 PM EDT
Length of Visible Light 13h 10m
Length of Day
12h 15m
Tomorrow will be 2m 43s shorter.
Waning Crescent, 13% of the Moon is Illuminated
Today
Waning Crescent
Sep 24
New
Oct 1
First Quarter
Oct 8
Full
Oct 15
Last Quarter

Today's Extremes

State Highs State Lows

Community

WunderPhotos

Upload Photos

1,754,794 photos uploaded!

WunderBlogs® & News

Nearby

Snow Depth

Station Depth Elevation
No new snow has been reported.

Earthquake Activity

City Distance Mag. Time & Date
No recent earthquake activity has been reported nearby.
Minimum magnitude displayed is 2.5.

Coastal Water Temperatures

Place Temperature
No Stations Reporting

Nearby Weather Stations